Time;durP1;ratioP1;P1;durP2;ratioP2;P2;SDS_P1;SDS_P2;PMS_P1;PMS_P2;Temp;Humidity;BMP_temperature;BMP_pressure;BME280_temperature;BME280_humidity;BME280_pressure;Samples;Min_cycle;Max_cycle;Signal;HPM_P1;HPM_P2
2021/09/19 00:00:00;;;;;;;8.30;5.12;;;;;;;10.36;91.23;93802.80;1595051;89;21026;-61
2021/09/19 00:02:27;;;;;;;4.78;4.30;;;;;;;10.35;91.62;93802.66;1596519;89;21546;-61
2021/09/19 00:04:54;;;;;;;7.47;5.20;;;;;;;10.36;91.50;93803.54;1592734;89;20991;-60
2021/09/19 00:07:20;;;;;;;8.13;5.85;;;;;;;10.35;91.67;93808.15;1591921;88;21117;-61
2021/09/19 00:09:49;;;;;;;5.83;5.15;;;;;;;10.35;92.22;93804.77;1594294;89;21229;-61
2021/09/19 00:12:15;;;;;;;4.78;4.37;;;;;;;10.37;92.28;93805.69;1594182;89;20966;-61
2021/09/19 00:14:42;;;;;;;5.10;4.70;;;;;;;10.37;92.15;93804.31;1590014;89;20995;-60
2021/09/19 00:17:10;;;;;;;6.60;4.03;;;;;;;10.39;92.38;93801.22;1591630;89;21042;-61
2021/09/19 00:19:37;;;;;;;4.92;4.37;;;;;;;10.48;92.49;93796.28;1593109;89;21106;-61
2021/09/19 00:22:04;;;;;;;7.80;5.05;;;;;;;10.51;92.18;93792.62;1594439;89;21558;-60
2021/09/19 00:24:31;;;;;;;5.30;4.80;;;;;;;10.50;91.88;93794.59;1591363;89;21086;-61
2021/09/19 00:27:00;;;;;;;6.58;4.47;;;;;;;10.50;91.85;93786.34;1593762;88;21628;-60
2021/09/19 00:29:26;;;;;;;10.85;4.45;;;;;;;10.51;91.59;93778.87;1594625;89;21098;-60
2021/09/19 00:31:54;;;;;;;7.83;4.90;;;;;;;10.49;91.65;93781.33;1592750;89;21621;-60
2021/09/19 00:34:22;;;;;;;5.75;4.70;;;;;;;10.53;92.09;93785.40;1595685;89;20962;-60
2021/09/19 00:36:48;;;;;;;5.25;4.50;;;;;;;10.59;91.82;93782.77;1593150;89;21482;-60
2021/09/19 00:39:16;;;;;;;6.20;4.50;;;;;;;10.61;91.72;93781.68;1592261;89;21094;-60
2021/09/19 00:41:42;;;;;;;6.85;4.60;;;;;;;10.64;91.64;93778.75;1593068;89;21121;-61
2021/09/19 00:44:11;;;;;;;4.90;4.25;;;;;;;10.69;91.56;93775.34;1596598;89;21089;-61
2021/09/19 00:46:38;;;;;;;5.75;3.98;;;;;;;10.74;91.36;93770.56;1594764;89;21227;-60
2021/09/19 00:49:04;;;;;;;4.78;4.08;;;;;;;10.71;91.07;93765.27;1592235;89;21109;-61
2021/09/19 00:51:32;;;;;;;5.03;4.20;;;;;;;10.67;90.88;93759.16;1594367;89;21121;-61
2021/09/19 00:53:59;;;;;;;4.08;3.75;;;;;;;10.67;91.09;93763.28;1592840;89;21106;-60
2021/09/19 00:56:28;;;;;;;7.95;4.35;;;;;;;10.68;90.97;93760.70;1592545;89;20987;-60
2021/09/19 00:58:57;;;;;;;4.37;3.92;;;;;;;10.63;90.74;93748.36;1592468;89;21787;-60
2021/09/19 01:01:25;;;;;;;8.50;4.87;;;;;;;10.59;91.09;93758.02;1598605;89;21471;-61
2021/09/19 01:03:53;;;;;;;8.05;5.42;;;;;;;10.59;91.07;93758.02;1595619;89;21007;-61
2021/09/19 01:06:21;;;;;;;6.10;4.12;;;;;;;10.61;91.12;93759.67;1594784;89;21018;-61
2021/09/19 01:08:48;;;;;;;7.33;4.50;;;;;;;10.65;91.27;93758.27;1597375;89;21482;-61
2021/09/19 01:11:17;;;;;;;6.83;4.20;;;;;;;10.66;91.48;93760.39;1591030;89;21139;-61
2021/09/19 01:13:45;;;;;;;5.37;4.20;;;;;;;10.69;91.50;93749.84;1595495;89;20971;-61
2021/09/19 01:16:13;;;;;;;6.95;3.95;;;;;;;10.70;91.43;93748.61;1599494;89;21046;-61
2021/09/19 01:18:42;;;;;;;5.67;4.17;;;;;;;10.72;91.60;93748.27;1601052;88;21031;-61
2021/09/19 01:21:11;;;;;;;4.55;3.98;;;;;;;10.74;91.47;93747.95;1598824;88;20978;-61
2021/09/19 01:23:40;;;;;;;4.50;4.10;;;;;;;10.77;91.60;93753.88;1595281;88;21178;-61
2021/09/19 01:26:07;;;;;;;6.12;4.03;;;;;;;10.80;91.57;93741.92;1596494;89;21025;-60
2021/09/19 01:28:34;;;;;;;4.40;4.00;;;;;;;10.84;91.45;93745.25;1597054;89;21011;-62
2021/09/19 01:31:02;;;;;;;4.40;4.00;;;;;;;10.88;91.00;93736.22;1592883;89;21055;-60
2021/09/19 01:33:30;;;;;;;4.40;4.00;;;;;;;10.87;91.13;93740.20;1593637;88;21055;-61
2021/09/19 01:35:58;;;;;;;4.42;4.03;;;;;;;10.91;90.93;93740.77;1590697;89;21573;-61
2021/09/19 01:38:26;;;;;;;3.77;3.47;;;;;;;10.86;90.83;93742.81;1593677;89;21110;-61
2021/09/19 01:40:54;;;;;;;11.60;3.50;;;;;;;10.86;90.97;93737.30;1593478;88;20999;-60
2021/09/19 01:43:22;;;;;;;5.40;3.95;;;;;;;10.82;90.72;93735.97;1613966;87;21079;-61
2021/09/19 01:45:51;;;;;;;5.28;3.98;;;;;;;10.78;91.13;93734.77;1574607;88;21101;-60
2021/09/19 01:48:17;;;;;;;4.97;3.92;;;;;;;10.81;91.31;93728.31;1592515;89;21151;-61
2021/09/19 01:50:44;;;;;;;3.98;3.60;;;;;;;10.83;91.16;93732.72;1597495;88;20987;-60
2021/09/19 01:53:11;;;;;;;3.85;3.55;;;;;;;10.80;91.07;93728.17;1593203;88;21069;-60
2021/09/19 01:55:39;;;;;;;5.12;4.05;;;;;;;10.77;90.88;93731.88;1595173;88;21044;-61
2021/09/19 01:58:06;;;;;;;3.77;3.47;;;;;;;10.73;91.00;93725.66;1595456;88;21455;-61
2021/09/19 02:00:34;;;;;;;4.78;3.98;;;;;;;10.66;91.13;93717.16;1596433;89;21289;-61
2021/09/19 02:03:01;;;;;;;8.53;4.00;;;;;;;10.61;91.51;93719.20;1593218;89;21199;-60
2021/09/19 02:05:28;;;;;;;3.83;3.45;;;;;;;10.67;91.83;93717.91;1592784;89;21606;-61
2021/09/19 02:07:55;;;;;;;3.50;3.20;;;;;;;10.70;91.71;93713.59;1593591;89;21078;-61
2021/09/19 02:10:22;;;;;;;4.03;3.65;;;;;;;10.73;91.76;93719.53;1594419;89;21085;-60
2021/09/19 02:12:48;;;;;;;7.60;3.98;;;;;;;10.77;91.82;93720.87;1593635;89;21204;-61
2021/09/19 02:15:15;;;;;;;4.50;3.58;;;;;;;10.82;91.75;93723.59;1592886;89;20994;-61
2021/09/19 02:17:42;;;;;;;3.80;3.50;;;;;;;10.84;91.66;93720.48;1592730;89;21116;-60
2021/09/19 02:20:13;;;;;;;5.15;3.65;;;;;;;10.90;91.95;93720.59;1591475;89;21050;-61
2021/09/19 02:22:39;;;;;;;3.58;3.27;;;;;;;10.98;91.98;93716.25;1592858;89;21086;-61
2021/09/19 02:25:09;;;;;;;5.97;3.33;;;;;;;11.03;91.63;93719.09;1594592;88;21495;-61
2021/09/19 02:27:36;;;;;;;5.70;3.30;;;;;;;11.02;91.50;93723.69;1594616;89;21042;-61
2021/09/19 02:30:07;;;;;;;4.45;4.05;;;;;;;10.96;91.06;93722.84;1598696;89;21523;-61
2021/09/19 02:32:34;;;;;;;5.28;3.37;;;;;;;10.90;91.06;93721.36;1596131;89;20995;-61
2021/09/19 02:35:01;;;;;;;3.22;3.00;;;;;;;10.86;91.10;93727.67;1592845;89;21042;-61
2021/09/19 02:37:27;;;;;;;4.00;3.33;;;;;;;10.82;91.13;93713.95;1596776;88;21147;-61
2021/09/19 02:39:55;;;;;;;3.80;3.50;;;;;;;10.77;91.43;93716.00;1593375;89;21032;-61
2021/09/19 02:42:22;;;;;;;10.53;3.55;;;;;;;10.78;91.67;93710.01;1593865;89;21014;-61
2021/09/19 02:44:50;;;;;;;7.65;3.42;;;;;;;10.79;91.61;93709.41;1597261;88;21026;-61
2021/09/19 02:47:17;;;;;;;4.00;3.70;;;;;;;10.78;91.56;93702.38;1592259;89;21081;-63
2021/09/19 02:49:43;;;;;;;4.00;3.70;;;;;;;10.75;91.75;93700.56;1595780;89;21166;-61
2021/09/19 02:52:11;;;;;;;3.90;3.60;;;;;;;10.72;91.79;93694.62;1594179;89;21143;-61
2021/09/19 02:54:38;;;;;;;3.52;3.22;;;;;;;10.71;91.97;93697.23;1591978;89;21120;-61
2021/09/19 02:57:05;;;;;;;4.47;3.30;;;;;;;10.71;92.24;93696.49;1593335;89;21701;-63
2021/09/19 02:59:32;;;;;;;3.45;3.20;;;;;;;10.73;92.48;93699.67;1596300;89;21031;-59
2021/09/19 03:02:00;;;;;;;3.60;3.40;;;;;;;10.76;92.79;93693.22;1594693;89;21168;-61
2021/09/19 03:04:26;;;;;;;6.55;3.20;;;;;;;10.82;93.32;93692.69;1597655;89;21598;-60
2021/09/19 03:06:55;;;;;;;3.65;3.27;;;;;;;10.89;93.13;93695.69;1595855;88;21039;-61
2021/09/19 03:09:23;;;;;;;6.25;3.75;;;;;;;10.94;93.02;93699.91;1596215;88;21443;-61
2021/09/19 03:11:50;;;;;;;5.78;3.60;;;;;;;10.99;93.03;93697.87;1597190;89;20991;-60
2021/09/19 03:14:18;;;;;;;4.05;3.72;;;;;;;11.06;93.19;93687.09;1594711;88;20979;-60
2021/09/19 03:16:45;;;;;;;10.18;3.30;;;;;;;11.10;92.89;93691.19;1595032;89;21085;-62
2021/09/19 03:19:13;;;;;;;3.50;3.20;;;;;;;11.10;92.87;93686.28;1592906;88;21602;-60
2021/09/19 03:21:42;;;;;;;5.33;3.50;;;;;;;11.13;92.97;93703.99;1597759;88;21248;-61
2021/09/19 03:24:11;;;;;;;4.42;4.03;;;;;;;11.17;92.98;93699.05;1596698;89;37350;-61
2021/09/19 03:26:37;;;;;;;4.20;3.80;;;;;;;11.22;93.21;93700.38;1594079;89;21871;-61
2021/09/19 03:29:06;;;;;;;5.53;3.67;;;;;;;11.28;92.91;93698.47;1593340;88;20979;-60
2021/09/19 03:31:34;;;;;;;3.98;3.58;;;;;;;11.25;92.55;93694.69;1591657;89;21145;-62
2021/09/19 03:34:00;;;;;;;4.37;4.00;;;;;;;11.25;92.53;93698.82;1594924;89;21732;-61
2021/09/19 03:36:29;;;;;;;4.60;3.70;;;;;;;11.24;92.57;93695.16;1595544;89;21037;-61
2021/09/19 03:38:55;;;;;;;4.58;4.17;;;;;;;11.26;92.75;93687.17;1597285;88;21597;-61
2021/09/19 03:41:22;;;;;;;4.95;3.83;;;;;;;11.26;92.60;93687.17;1600723;88;21015;-60
2021/09/19 03:43:49;;;;;;;5.87;3.50;;;;;;;11.24;92.44;93687.67;1594445;89;21071;-61
2021/09/19 03:46:16;;;;;;;4.00;3.67;;;;;;;11.23;92.39;93693.03;1593809;89;21092;-61
2021/09/19 03:48:43;;;;;;;6.50;3.90;;;;;;;11.22;92.33;93692.12;1591300;89;21424;-62
2021/09/19 03:51:09;;;;;;;4.42;4.03;;;;;;;11.21;92.49;93690.60;1597888;88;21146;-61
2021/09/19 03:53:37;;;;;;;8.85;3.95;;;;;;;11.21;92.58;93696.85;1598413;89;21022;-59
2021/09/19 03:56:04;;;;;;;6.22;4.03;;;;;;;11.19;92.59;93696.58;1596231;89;21082;-60
2021/09/19 03:58:31;;;;;;;3.92;3.55;;;;;;;11.20;92.60;93693.22;1593888;89;21039;-61
2021/09/19 04:00:58;;;;;;;5.03;4.53;;;;;;;11.26;92.91;93693.45;1594386;89;20971;-62
2021/09/19 04:03:24;;;;;;;6.17;4.75;;;;;;;11.29;92.59;93702.12;1599058;89;21892;-61
2021/09/19 04:05:51;;;;;;;8.78;4.03;;;;;;;11.29;92.36;93700.75;1601263;89;21014;-61
2021/09/19 04:08:17;;;;;;;6.25;3.80;;;;;;;11.28;92.39;93697.86;1598885;89;21506;-61
2021/09/19 04:10:45;;;;;;;4.62;3.90;;;;;;;11.28;92.42;93706.13;1596711;88;21460;-61
2021/09/19 04:13:14;;;;;;;4.78;4.20;;;;;;;11.27;92.48;93699.09;1598171;89;21089;-61
2021/09/19 04:15:41;;;;;;;5.80;4.42;;;;;;;11.32;92.56;93714.94;1595538;88;21147;-60
2021/09/19 04:18:09;;;;;;;4.42;4.03;;;;;;;11.36;92.64;93709.99;1594057;88;21094;-60
2021/09/19 04:20:37;;;;;;;6.35;3.75;;;;;;;11.41;92.46;93707.97;1593979;88;21647;-62
2021/09/19 04:23:05;;;;;;;6.08;4.53;;;;;;;11.43;92.12;93705.48;1594427;89;21082;-60
2021/09/19 04:25:32;;;;;;;5.15;4.28;;;;;;;11.42;92.03;93708.11;1590940;89;20987;-61
2021/09/19 04:28:01;;;;;;;8.93;4.22;;;;;;;11.44;92.25;93713.89;1590058;88;21015;-62
2021/09/19 04:30:27;;;;;;;5.58;4.17;;;;;;;11.47;92.23;93718.44;1591700;89;21030;-61
2021/09/19 04:32:56;;;;;;;4.60;3.90;;;;;;;11.48;92.03;93724.09;1593108;88;21090;-61
2021/09/19 04:35:22;;;;;;;4.67;4.28;;;;;;;11.51;92.03;93716.88;1593055;88;21070;-61
2021/09/19 04:37:51;;;;;;;5.92;4.17;;;;;;;11.53;92.01;93722.03;1594722;88;21034;-61
2021/09/19 04:40:18;;;;;;;6.00;4.40;;;;;;;11.55;91.96;93723.69;1592236;89;21166;-61
2021/09/19 04:42:45;;;;;;;4.70;4.10;;;;;;;11.54;91.77;93724.18;1590868;89;21043;-61
2021/09/19 04:45:12;;;;;;;4.62;4.15;;;;;;;11.52;91.92;93737.03;1591429;89;21494;-61
2021/09/19 04:47:38;;;;;;;4.87;4.10;;;;;;;11.55;91.79;93732.58;1594089;89;21112;-60
2021/09/19 04:50:07;;;;;;;5.47;4.40;;;;;;;11.57;91.76;93730.13;1598076;89;21032;-62
2021/09/19 04:52:36;;;;;;;7.42;5.00;;;;;;;11.58;91.74;93732.42;1596293;88;21483;-61
2021/09/19 04:55:04;;;;;;;6.28;3.95;;;;;;;11.63;92.07;93733.12;1593377;89;20979;-61
2021/09/19 04:57:32;;;;;;;6.30;4.20;;;;;;;11.68;92.14;93724.17;1596069;88;21467;-61
2021/09/19 05:00:00;;;;;;;4.65;4.25;;;;;;;11.72;92.07;93719.22;1593376;89;21176;-61
2021/09/19 05:02:27;;;;;;;7.70;4.75;;;;;;;11.78;92.15;93725.59;1594633;89;21065;-61
2021/09/19 05:04:54;;;;;;;5.50;4.97;;;;;;;11.80;91.85;93723.11;1593955;89;21190;-61
2021/09/19 05:07:21;;;;;;;5.55;4.92;;;;;;;11.80;91.70;93723.71;1601371;89;20962;-61
2021/09/19 05:09:49;;;;;;;8.18;4.72;;;;;;;11.76;91.72;93725.91;1595077;89;21006;-61
2021/09/19 05:12:17;;;;;;;5.30;4.53;;;;;;;11.72;91.73;93732.99;1596389;89;21069;-60
2021/09/19 05:14:44;;;;;;;5.35;4.80;;;;;;;11.70;91.87;93733.34;1596937;89;20998;-61
2021/09/19 05:17:12;;;;;;;7.62;5.00;;;;;;;11.71;92.07;93745.25;1601430;88;21118;-60
2021/09/19 05:19:40;;;;;;;9.30;5.05;;;;;;;11.69;92.13;93749.11;1597165;88;21130;-61
2021/09/19 05:22:09;;;;;;;8.78;5.67;;;;;;;11.70;92.24;93752.00;1593946;88;21522;-61
2021/09/19 05:24:35;;;;;;;9.33;5.42;;;;;;;11.72;92.50;93753.66;1597555;89;21031;-61
2021/09/19 05:27:04;;;;;;;7.10;5.28;;;;;;;11.75;92.76;93763.72;1595213;88;20970;-61
2021/09/19 05:29:30;;;;;;;5.95;4.42;;;;;;;11.83;93.07;93764.86;1594618;89;21155;-60
2021/09/19 05:31:57;;;;;;;6.90;4.67;;;;;;;11.88;92.71;93773.81;1595310;89;21918;-61
2021/09/19 05:34:23;;;;;;;7.85;4.75;;;;;;;11.87;92.47;93770.92;1592638;89;20990;-62
2021/09/19 05:36:50;;;;;;;5.70;4.33;;;;;;;11.85;92.55;93778.91;1595032;89;21055;-61
2021/09/19 05:39:18;;;;;;;5.40;4.70;;;;;;;11.87;92.59;93775.05;1596232;88;21570;-61
2021/09/19 05:41:45;;;;;;;7.45;4.55;;;;;;;11.93;92.85;93770.38;1592382;89;21134;-62
2021/09/19 05:44:12;;;;;;;4.37;3.95;;;;;;;11.96;92.45;93765.31;1595930;89;20996;-61
2021/09/19 05:46:38;;;;;;;3.90;3.60;;;;;;;11.98;92.57;93765.59;1593070;89;21091;-59
2021/09/19 05:49:06;;;;;;;9.08;4.45;;;;;;;12.03;92.46;93760.77;1591770;89;21554;-60
2021/09/19 05:51:33;;;;;;;5.70;4.80;;;;;;;12.09;92.70;93753.95;1591742;89;21055;-61
2021/09/19 05:54:00;;;;;;;6.78;5.75;;;;;;;12.15;92.67;93755.55;1598074;88;21796;-62
2021/09/19 05:56:26;;;;;;;8.63;6.75;;;;;;;12.20;92.62;93758.23;1593424;89;21022;-60
2021/09/19 05:58:54;;;;;;;8.80;6.45;;;;;;;12.24;92.53;93758.17;1597555;89;21499;-61
2021/09/19 06:01:21;;;;;;;5.62;4.80;;;;;;;12.26;92.41;93761.84;1592697;89;21093;-60
2021/09/19 06:03:48;;;;;;;18.30;5.75;;;;;;;12.26;92.35;93758.45;1591022;89;21593;-60
2021/09/19 06:06:15;;;;;;;5.62;5.10;;;;;;;12.26;92.11;93762.58;1593339;89;21186;-59
2021/09/19 06:08:43;;;;;;;4.95;4.55;;;;;;;12.25;92.11;93758.31;1592001;88;21574;-60
2021/09/19 06:11:11;;;;;;;6.72;4.17;;;;;;;12.31;92.21;93755.02;1597615;88;21133;-60
2021/09/19 06:13:40;;;;;;;5.80;4.72;;;;;;;12.36;92.39;93759.84;1596229;88;21079;-61
2021/09/19 06:16:07;;;;;;;4.72;4.25;;;;;;;12.45;92.60;93756.94;1593425;89;21244;-61
2021/09/19 06:18:34;;;;;;;4.97;4.47;;;;;;;12.55;92.23;93755.57;1591518;89;21173;-61
2021/09/19 06:21:03;;;;;;;4.50;3.83;;;;;;;12.64;92.34;93755.41;1595312;89;21074;-60
2021/09/19 06:23:30;;;;;;;3.85;3.55;;;;;;;12.71;92.18;93753.63;1600713;88;21025;-61
2021/09/19 06:25:58;;;;;;;3.90;3.60;;;;;;;12.77;91.83;93748.92;1591479;89;21597;-62
2021/09/19 06:28:25;;;;;;;3.62;3.33;;;;;;;12.85;91.67;93752.77;1594271;88;21590;-61
2021/09/19 06:30:52;;;;;;;5.42;4.87;;;;;;;12.95;91.01;93748.66;1594832;89;21163;-62
2021/09/19 06:33:19;;;;;;;4.00;3.67;;;;;;;13.05;90.60;93746.62;1597545;89;21030;-61
2021/09/19 06:35:48;;;;;;;5.92;4.08;;;;;;;13.19;90.15;93751.91;1594696;88;21182;-64
2021/09/19 06:38:14;;;;;;;11.15;7.35;;;;;;;13.32;89.15;93748.14;1596261;88;21116;-62
2021/09/19 06:40:43;;;;;;;11.50;6.22;;;;;;;13.47;88.72;93753.67;1592569;88;21200;-62
2021/09/19 06:43:10;;;;;;;4.58;4.17;;;;;;;13.58;88.42;93754.39;1593840;87;21119;-61
2021/09/19 06:45:37;;;;;;;5.33;3.85;;;;;;;13.69;88.19;93755.88;1592732;89;21039;-61
2021/09/19 06:48:05;;;;;;;4.33;3.65;;;;;;;13.74;87.57;93763.44;1596862;89;21486;-62
2021/09/19 06:50:32;;;;;;;5.53;4.65;;;;;;;13.79;87.41;93752.44;1597942;88;21085;-62
2021/09/19 06:53:01;;;;;;;7.92;5.55;;;;;;;13.86;87.17;93749.84;1596489;89;21127;-61
2021/09/19 06:55:28;;;;;;;6.10;5.20;;;;;;;13.89;87.00;93753.01;1592291;89;21539;-61
2021/09/19 06:57:56;;;;;;;4.58;4.17;;;;;;;13.90;86.97;93753.91;1586176;89;21066;-63
2021/09/19 07:00:23;;;;;;;7.75;3.92;;;;;;;13.96;87.00;93751.19;1594050;88;21159;-62
2021/09/19 07:02:51;;;;;;;3.80;3.50;;;;;;;13.99;86.96;93748.82;1593466;87;21156;-61
2021/09/19 07:05:19;;;;;;;3.65;3.35;;;;;;;14.05;87.29;93750.98;1591813;89;21922;-62
2021/09/19 07:07:46;;;;;;;4.10;3.70;;;;;;;14.10;86.90;93743.34;1601130;88;21814;-62
2021/09/19 07:10:15;;;;;;;7.28;3.58;;;;;;;14.09;86.69;93750.13;1593345;89;21128;-62
2021/09/19 07:12:42;;;;;;;5.72;3.67;;;;;;;14.10;86.77;93751.03;1595232;89;20978;-61
2021/09/19 07:15:11;;;;;;;4.87;3.60;;;;;;;14.19;85.52;93744.58;1597345;89;21529;-62
2021/09/19 07:17:38;;;;;;;4.45;3.47;;;;;;;14.24;84.48;93751.53;1597690;88;21083;-61
2021/09/19 07:20:07;;;;;;;3.83;3.50;;;;;;;14.36;84.19;93749.58;1598263;88;21164;-62
2021/09/19 07:22:36;;;;;;;5.08;4.53;;;;;;;14.45;83.96;93749.48;1594125;89;20987;-62
2021/09/19 07:25:05;;;;;;;5.10;4.12;;;;;;;14.59;83.64;93751.33;1590849;89;21134;-62
2021/09/19 07:27:32;;;;;;;12.23;7.50;;;;;;;14.69;81.10;93761.55;1592129;89;21097;-62
2021/09/19 07:30:00;;;;;;;3.80;3.37;;;;;;;14.72;79.25;93755.80;1596168;89;21586;-62
2021/09/19 07:32:31;;;;;;;5.65;3.83;;;;;;;14.78;76.01;93759.33;1591664;89;21119;-61
2021/09/19 07:34:57;;;;;;;5.00;4.12;;;;;;;14.81;74.06;93768.02;1592848;89;20987;-61
2021/09/19 07:37:25;;;;;;;3.60;3.10;;;;;;;14.83;73.08;93763.38;1594030;89;21118;-62
2021/09/19 07:39:52;;;;;;;5.12;3.08;;;;;;;14.88;71.96;93770.33;1595873;89;21058;-61
2021/09/19 07:42:20;;;;;;;7.25;5.28;;;;;;;14.91;71.15;93769.95;1592501;89;21542;-61
2021/09/19 07:44:48;;;;;;;13.85;10.65;;;;;;;14.92;70.90;93765.92;1593422;89;21186;-62
2021/09/19 07:47:15;;;;;;;5.70;3.45;;;;;;;14.99;69.44;93764.81;1595761;89;20981;-62
2021/09/19 07:49:45;;;;;;;2.37;2.17;;;;;;;15.07;68.31;93774.17;1595981;89;20986;-62
2021/09/19 07:52:15;;;;;;;1.98;1.77;;;;;;;15.16;66.27;93773.94;1595229;89;21983;-62
2021/09/19 07:54:42;;;;;;;1.82;1.72;;;;;;;15.22;65.48;93773.31;1599268;89;21039;-62
2021/09/19 07:57:09;;;;;;;1.47;1.37;;;;;;;15.25;64.52;93782.65;1591669;89;21174;-62
2021/09/19 07:59:37;;;;;;;1.50;1.40;;;;;;;15.25;63.98;93786.20;1595859;89;20990;-61
2021/09/19 08:02:04;;;;;;;1.80;1.70;;;;;;;15.16;60.27;93782.89;1594354;89;21091;-63
2021/09/19 08:04:31;;;;;;;3.87;2.50;;;;;;;14.99;60.27;93781.44;1591699;89;21163;-63
2021/09/19 08:06:57;;;;;;;2.42;2.05;;;;;;;14.87;60.00;93787.44;1600840;89;21130;-63
2021/09/19 08:09:26;;;;;;;1.37;1.27;;;;;;;14.77;59.89;93786.89;1594621;89;21124;-62
2021/09/19 08:11:54;;;;;;;2.22;1.60;;;;;;;14.68;59.67;93787.12;1594004;89;21166;-61
2021/09/19 08:14:20;;;;;;;1.60;1.50;;;;;;;14.57;61.09;93785.66;1590591;89;21566;-61
2021/09/19 08:16:47;;;;;;;2.02;1.85;;;;;;;14.50;60.49;93783.38;1592046;89;21606;-62
2021/09/19 08:19:14;;;;;;;1.65;1.55;;;;;;;14.45;61.45;93780.57;1592509;89;21110;-62
2021/09/19 08:21:43;;;;;;;18.57;13.25;;;;;;;14.39;60.01;93784.55;1592606;89;21121;-61
2021/09/19 08:24:11;;;;;;;11.53;8.50;;;;;;;14.33;60.43;93782.39;1594754;88;21030;-62
2021/09/19 08:26:39;;;;;;;5.40;4.90;;;;;;;14.30;61.71;93791.66;1593585;89;21050;-61
2021/09/19 08:29:07;;;;;;;3.77;3.50;;;;;;;14.26;61.83;93779.45;1596894;89;20975;-61
2021/09/19 08:31:36;;;;;;;3.70;3.40;;;;;;;14.23;62.00;93787.97;1602703;88;21148;-62
2021/09/19 08:34:02;;;;;;;3.60;3.00;;;;;;;14.22;61.92;93785.82;1596619;89;21913;-61
2021/09/19 08:36:29;;;;;;;6.67;6.15;;;;;;;14.23;63.17;93785.98;1593669;88;21077;-62
2021/09/19 08:38:57;;;;;;;6.17;5.65;;;;;;;14.28;62.60;93791.39;1590109;89;21039;-60
2021/09/19 08:41:24;;;;;;;4.17;3.17;;;;;;;14.37;62.27;93795.36;1594004;89;21558;-60
2021/09/19 08:43:52;;;;;;;4.20;3.80;;;;;;;14.48;62.95;93788.63;1593888;88;21589;-62
2021/09/19 08:46:21;;;;;;;1.60;1.50;;;;;;;14.62;61.30;93793.23;1597142;88;21159;-61
2021/09/19 08:48:48;;;;;;;2.90;2.70;;;;;;;14.75;60.90;93801.09;1594756;88;21110;-62
2021/09/19 08:51:15;;;;;;;2.55;2.35;;;;;;;14.82;61.18;93803.41;1591715;88;21200;-60
2021/09/19 08:53:42;;;;;;;3.40;2.22;;;;;;;14.89;60.98;93806.47;1594456;88;21165;-61
2021/09/19 08:56:09;;;;;;;3.35;3.08;;;;;;;14.94;61.30;93804.95;1593220;89;21396;-61
2021/09/19 08:58:39;;;;;;;3.55;2.77;;;;;;;14.99;61.79;93801.47;1602877;88;21142;-62
2021/09/19 09:01:07;;;;;;;2.67;2.47;;;;;;;15.06;60.92;93803.75;1599042;88;21451;-63
2021/09/19 09:03:34;;;;;;;1.70;1.60;;;;;;;15.09;61.42;93811.06;1596101;88;21002;-61
2021/09/19 09:06:04;;;;;;;2.05;1.95;;;;;;;15.11;60.80;93810.70;1603294;88;21045;-61
2021/09/19 09:08:33;;;;;;;2.42;2.05;;;;;;;15.11;60.07;93803.78;1593035;88;21632;-63
2021/09/19 09:11:05;;;;;;;2.42;2.22;;;;;;;15.05;60.10;93803.63;1599504;88;21099;-63
2021/09/19 09:13:40;;;;;;;1.35;1.20;;;;;;;14.99;61.16;93810.52;1599225;87;20994;-64
2021/09/19 09:16:11;;;;;;;5.20;3.52;;;;;;;14.96;59.44;93809.39;1597109;89;21069;-64
2021/09/19 09:18:41;;;;;;;2.15;2.00;;;;;;;14.90;59.27;93817.67;1597000;89;21041;-62
2021/09/19 09:21:23;;;;;;;2.92;2.62;;;;;;;14.86;60.28;93810.23;1594124;89;21059;-61
2021/09/19 09:23:54;;;;;;;5.87;5.03;;;;;;;14.87;60.70;93808.98;1594348;88;21251;-62
2021/09/19 09:26:34;;;;;;;4.67;2.90;;;;;;;14.82;60.64;93811.08;1591683;88;20991;-61
2021/09/19 09:29:04;;;;;;;2.75;2.02;;;;;;;14.78;61.52;93813.33;1615151;87;21565;-66
2021/09/19 09:31:52;;;;;;;2.35;1.70;;;;;;;14.74;61.67;93810.05;1604103;89;21041;-62
2021/09/19 09:34:25;;;;;;;1.80;1.70;;;;;;;14.67;61.00;93801.44;1582172;88;21056;-63
2021/09/19 09:36:59;;;;;;;2.00;1.90;;;;;;;14.71;62.16;93806.88;1600671;88;21034;-61
2021/09/19 09:39:42;;;;;;;2.62;2.42;;;;;;;14.76;61.88;93806.14;1598600;88;21039;-61
2021/09/19 09:42:18;;;;;;;;;;;;;;;14.79;60.58;93811.33;1596535;89;21025;-62
2021/09/19 09:44:50;;;;;;;4.00;1.80;;;;;;;14.81;59.12;93817.87;1600102;88;20182;-62
2021/09/19 09:47:23;;;;;;;1.98;1.87;;;;;;;14.86;59.19;93818.54;1603173;88;21177;-62
2021/09/19 09:49:56;;;;;;;6.97;3.65;;;;;;;14.89;58.47;93816.16;1596067;89;26786;-62
2021/09/19 09:52:35;;;;;;;1.55;1.45;;;;;;;15.03;59.67;93819.34;1594155;89;21589;-63
2021/09/19 09:55:10;;;;;;;8.25;2.70;;;;;;;15.14;58.84;93821.42;1593824;88;21011;-62
2021/09/19 09:58:03;;;;;;;2.42;2.20;;;;;;;15.18;58.24;93820.55;1601853;88;21081;-61
2021/09/19 10:00:30;;;;;;;1.50;1.40;;;;;;;15.25;58.73;93833.91;1599738;89;22526;-63
2021/09/19 10:02:58;;;;;;;2.42;2.22;;;;;;;15.25;57.42;93830.53;1593340;89;21114;-64
2021/09/19 10:05:27;;;;;;;2.22;2.02;;;;;;;15.17;57.33;93843.33;1592772;89;21685;-63
2021/09/19 10:07:55;;;;;;;1.60;1.50;;;;;;;15.09;57.31;93838.14;1596963;88;21162;-64
2021/09/19 10:10:23;;;;;;;9.63;8.83;;;;;;;15.01;57.87;93838.47;1596960;88;21044;-61
2021/09/19 10:12:52;;;;;;;4.45;4.10;;;;;;;14.94;57.62;93846.50;1593451;89;21134;-61
2021/09/19 10:15:20;;;;;;;6.85;3.02;;;;;;;14.83;57.84;93845.08;1599700;88;21650;-62
2021/09/19 10:17:49;;;;;;;1.80;1.70;;;;;;;14.74;58.92;93847.42;1594459;88;21581;-61
2021/09/19 10:20:30;;;;;;;2.98;2.67;;;;;;;14.70;59.14;93854.44;1590255;89;21145;-61
2021/09/19 10:23:20;;;;;;;2.42;2.22;;;;;;;14.60;59.05;93847.59;1600294;88;21505;-62
2021/09/19 10:25:52;;;;;;;3.00;2.80;;;;;;;14.54;58.95;93860.63;1594530;88;21557;-62
2021/09/19 10:28:37;;;;;;;4.70;3.05;;;;;;;14.48;59.14;93861.96;1593902;88;21122;-62
2021/09/19 10:31:20;;;;;;;3.17;2.30;;;;;;;14.46;59.94;93860.95;1593725;89;21584;-62
2021/09/19 10:33:56;;;;;;;6.37;2.90;;;;;;;14.42;60.34;93862.43;1595415;88;21083;-62
2021/09/19 10:36:45;;;;;;;3.15;2.95;;;;;;;14.41;60.98;93865.06;1592899;88;20986;-63
2021/09/19 10:39:30;;;;;;;1.92;1.82;;;;;;;14.41;61.02;93867.83;1592828;88;21031;-64
2021/09/19 10:42:21;;;;;;;3.17;2.00;;;;;;;14.43;60.75;93865.33;1593279;89;21185;-63
2021/09/19 10:44:54;;;;;;;2.47;2.02;;;;;;;14.39;61.06;93864.16;1594106;88;21089;-63
2021/09/19 10:47:34;;;;;;;1.87;1.75;;;;;;;14.32;61.05;93866.01;1617329;87;20995;-63
2021/09/19 10:50:34;;;;;;;2.60;2.20;;;;;;;14.29;61.77;93865.61;1593920;88;21078;-62
2021/09/19 10:53:19;;;;;;;2.67;2.20;;;;;;;14.22;61.43;93868.06;1593243;88;20986;-62
2021/09/19 10:56:03;;;;;;;5.95;2.50;;;;;;;14.13;62.02;93861.29;1591640;89;21586;-61
2021/09/19 10:58:41;;;;;;;3.37;2.40;;;;;;;14.07;62.29;93866.02;1616374;87;21071;-63
2021/09/19 11:01:14;;;;;;;8.78;6.15;;;;;;;14.04;62.43;93862.86;1594124;88;21054;-62
2021/09/19 11:03:47;;;;;;;4.22;3.30;;;;;;;14.00;62.62;93863.71;1594057;89;21181;-61
2021/09/19 11:06:36;;;;;;;3.85;2.85;;;;;;;13.90;62.88;93865.12;1595537;88;21474;-63
2021/09/19 11:09:25;;;;;;;3.25;2.70;;;;;;;13.84;62.71;93868.47;1622003;86;21179;-63
2021/09/19 11:12:12;;;;;;;3.12;2.83;;;;;;;13.81;63.34;93868.06;1577307;89;21381;-64
2021/09/19 11:15:03;;;;;;;4.25;3.40;;;;;;;13.78;64.04;93871.17;1599480;87;21025;-62
2021/09/19 11:17:32;;;;;;;4.50;4.10;;;;;;;13.74;63.64;93872.02;1598250;88;21533;-62
2021/09/19 11:20:20;;;;;;;4.87;4.03;;;;;;;13.71;63.89;93873.61;1599313;88;21083;-62
2021/09/19 11:22:51;;;;;;;6.67;4.42;;;;;;;13.68;63.86;93875.98;1591347;88;21098;-62
2021/09/19 11:25:20;;;;;;;7.95;6.62;;;;;;;13.66;63.91;93875.70;1618779;87;21853;-63
2021/09/19 11:27:50;;;;;;;5.22;4.70;;;;;;;13.65;64.11;93876.95;1574105;89;21602;-62
2021/09/19 11:30:21;;;;;;;3.50;3.20;;;;;;;13.68;64.54;93875.98;1591194;88;21119;-63
2021/09/19 11:32:48;;;;;;;3.62;3.33;;;;;;;13.71;65.06;93879.14;1596327;88;21592;-63
2021/09/19 11:35:16;;;;;;;3.52;3.33;;;;;;;13.73;63.99;93878.03;1592961;89;21403;-62
2021/09/19 11:37:47;;;;;;;4.37;3.00;;;;;;;13.76;63.24;93876.44;1592695;88;21470;-63
2021/09/19 11:40:24;;;;;;;2.60;2.40;;;;;;;13.79;63.64;93876.84;1615989;87;21136;-62
2021/09/19 11:42:54;;;;;;;3.70;3.30;;;;;;;13.83;63.33;93869.08;1591974;89;21026;-66